createdAt,value
2019-02-06T00:03:03.529Z,6.65
2019-02-06T00:05:29.793Z,6.60
2019-02-06T00:07:56.056Z,6.63
2019-02-06T00:10:22.131Z,6.51
2019-02-06T00:12:48.371Z,6.52
2019-02-06T00:15:14.563Z,6.49
2019-02-06T00:17:40.708Z,6.49
2019-02-06T00:20:06.974Z,6.46
2019-02-06T00:22:33.235Z,6.35
2019-02-06T00:24:59.735Z,6.29
2019-02-06T00:27:26.002Z,6.18
2019-02-06T00:29:52.261Z,6.07
2019-02-06T00:32:18.516Z,6.10
2019-02-06T00:34:44.777Z,6.02
2019-02-06T00:37:11.025Z,6.00
2019-02-06T00:39:37.287Z,6.01
2019-02-06T00:42:03.566Z,5.98
2019-02-06T00:44:30.234Z,5.99
2019-02-06T00:46:56.479Z,6.02
2019-02-06T00:49:22.658Z,6.06
2019-02-06T00:51:48.610Z,6.10
2019-02-06T00:54:14.866Z,6.10
2019-02-06T00:56:40.949Z,6.13
2019-02-06T00:59:07.106Z,6.14
2019-02-06T01:01:33.361Z,6.10
2019-02-06T01:03:59.646Z,6.11
2019-02-06T01:06:26.122Z,6.19
2019-02-06T01:08:52.375Z,6.19
2019-02-06T01:11:18.634Z,6.23
2019-02-06T01:13:44.578Z,6.20
2019-02-06T01:16:10.846Z,6.22
2019-02-06T01:18:37.104Z,6.35
2019-02-06T01:21:03.369Z,6.36
2019-02-06T01:23:29.632Z,6.38
2019-02-06T01:25:55.902Z,6.32
2019-02-06T01:28:22.178Z,6.27
2019-02-06T01:30:55.803Z,5.84
2019-02-06T01:33:22.064Z,6.28
2019-02-06T01:35:49.952Z,6.38
2019-02-06T01:38:16.097Z,6.53
2019-02-06T01:40:42.399Z,6.36
2019-02-06T01:43:08.352Z,6.38
2019-02-06T01:45:34.811Z,6.43
2019-02-06T01:48:00.765Z,6.44
2019-02-06T01:50:26.802Z,6.45
2019-02-06T01:52:52.754Z,6.54
2019-02-06T01:55:18.703Z,6.57
2019-02-06T01:57:44.662Z,6.49
2019-02-06T02:00:14.513Z,6.35
2019-02-06T02:02:40.662Z,6.42
2019-02-06T02:05:06.902Z,6.49
2019-02-06T02:07:33.151Z,6.50
2019-02-06T02:09:59.213Z,6.32
2019-02-06T02:12:25.271Z,6.10
2019-02-06T02:14:51.332Z,6.07
2019-02-06T02:17:17.602Z,6.12
2019-02-06T02:19:43.657Z,6.01
2019-02-06T02:22:10.048Z,5.93
2019-02-06T02:24:36.088Z,5.96
2019-02-06T02:27:02.540Z,6.02
2019-02-06T02:29:28.708Z,5.97
2019-02-06T02:31:55.209Z,6.02
2019-02-06T02:34:21.442Z,5.95
2019-02-06T02:36:47.523Z,5.80
2019-02-06T02:39:13.565Z,5.66
2019-02-06T02:41:39.778Z,5.72
2019-02-06T02:44:06.035Z,5.77
2019-02-06T02:46:32.397Z,5.74
2019-02-06T02:48:58.490Z,5.74
2019-02-06T02:51:24.544Z,5.77
2019-02-06T02:53:50.718Z,5.72
2019-02-06T02:56:16.925Z,5.58
2019-02-06T02:58:43.029Z,5.55
2019-02-06T03:01:29.045Z,5.51
2019-02-06T03:03:59.870Z,5.53
2019-02-06T03:06:28.538Z,5.45
2019-02-06T03:08:53.909Z,5.55
2019-02-06T03:11:20.055Z,5.44
2019-02-06T03:13:46.108Z,5.46
2019-02-06T03:16:12.069Z,5.48
2019-02-06T03:18:38.038Z,5.55
2019-02-06T03:21:04.296Z,5.68
2019-02-06T03:23:30.584Z,5.78
2019-02-06T03:25:56.647Z,5.84
2019-02-06T03:28:22.613Z,5.78
2019-02-06T03:30:48.575Z,5.83
2019-02-06T03:33:14.822Z,5.82
2019-02-06T03:35:41.375Z,5.70
2019-02-06T03:38:07.530Z,5.57
2019-02-06T03:40:33.584Z,5.57
2019-02-06T03:42:59.737Z,5.76
2019-02-06T03:45:25.689Z,5.83
2019-02-06T03:47:51.628Z,5.81
2019-02-06T03:50:18.623Z,5.79
2019-02-06T03:52:44.533Z,5.71
2019-02-06T03:55:11.283Z,5.72
2019-02-06T03:57:37.317Z,5.66
2019-02-06T04:00:10.083Z,5.65
2019-02-06T04:02:36.032Z,5.55
2019-02-06T04:05:02.380Z,5.56
2019-02-06T04:07:28.731Z,5.70
2019-02-06T04:09:55.004Z,5.70
2019-02-06T04:12:21.160Z,5.66
2019-02-06T04:14:47.319Z,5.70
2019-02-06T04:17:13.604Z,5.81
2019-02-06T04:19:39.769Z,5.85
2019-02-06T04:22:06.327Z,5.75
2019-02-06T04:24:32.593Z,5.71
2019-02-06T04:26:58.834Z,5.86
2019-02-06T04:29:25.146Z,5.83
2019-02-06T04:31:51.308Z,5.84
2019-02-06T04:34:17.484Z,5.78
2019-02-06T04:36:43.688Z,5.77
2019-02-06T04:39:10.014Z,5.67
2019-02-06T04:41:36.863Z,5.65
2019-02-06T04:44:03.161Z,5.67
2019-02-06T04:46:29.467Z,5.71
2019-02-06T04:48:55.755Z,5.66
2019-02-06T04:51:22.012Z,5.63
2019-02-06T04:53:48.288Z,5.61
2019-02-06T04:56:14.559Z,5.67
2019-02-06T04:58:40.729Z,5.63
2019-02-06T05:01:06.894Z,5.55
2019-02-06T05:03:33.405Z,5.47
2019-02-06T05:05:59.606Z,5.46
2019-02-06T05:08:25.854Z,5.37
2019-02-06T05:10:52.209Z,5.20
2019-02-06T05:13:18.564Z,5.25
2019-02-06T05:15:44.520Z,5.33
2019-02-06T05:18:10.722Z,5.23
2019-02-06T05:20:37.391Z,5.33
2019-02-06T05:23:05.074Z,5.33
2019-02-06T05:25:31.168Z,5.22
2019-02-06T05:27:57.424Z,5.14
2019-02-06T05:30:23.379Z,5.12
2019-02-06T05:32:49.539Z,4.99
2019-02-06T05:35:15.637Z,4.97
2019-02-06T05:37:41.908Z,4.97
2019-02-06T05:40:10.813Z,5.02
2019-02-06T05:42:36.878Z,5.09
2019-02-06T05:45:24.938Z,5.02
2019-02-06T05:47:51.004Z,4.87
2019-02-06T05:50:17.558Z,4.98
2019-02-06T05:52:43.518Z,4.98
2019-02-06T05:55:10.156Z,4.97
2019-02-06T05:57:36.207Z,4.84
2019-02-06T06:00:22.234Z,4.84
2019-02-06T06:02:48.504Z,4.78
2019-02-06T06:05:14.762Z,4.78
2019-02-06T06:07:45.106Z,4.95
2019-02-06T06:10:12.352Z,4.96
2019-02-06T06:12:38.965Z,4.85
2019-02-06T06:15:07.410Z,4.80
2019-02-06T06:17:33.383Z,4.75
2019-02-06T06:19:59.622Z,4.84
2019-02-06T06:22:25.886Z,4.83
2019-02-06T06:24:52.153Z,4.81
2019-02-06T06:27:18.446Z,4.94
2019-02-06T06:29:44.707Z,5.03
2019-02-06T06:32:10.969Z,5.08
2019-02-06T06:34:37.520Z,5.07
2019-02-06T06:37:03.684Z,5.06
2019-02-06T06:39:29.940Z,5.08
2019-02-06T06:41:55.885Z,5.13
2019-02-06T06:44:22.157Z,5.15
2019-02-06T06:46:48.315Z,5.11
2019-02-06T06:49:14.600Z,5.08
2019-02-06T06:51:40.659Z,5.02
2019-02-06T06:54:06.917Z,5.12
2019-02-06T06:56:33.270Z,5.23
2019-02-06T06:58:59.525Z,5.24
2019-02-06T07:01:25.594Z,5.42
2019-02-06T07:03:51.754Z,5.45
2019-02-06T07:06:18.091Z,5.48
2019-02-06T07:08:44.351Z,5.63
2019-02-06T07:11:10.301Z,5.70
2019-02-06T07:13:37.196Z,5.74
2019-02-06T07:16:03.643Z,5.84
2019-02-06T07:18:29.591Z,5.94
2019-02-06T07:20:55.639Z,5.92
2019-02-06T07:23:21.915Z,5.92
2019-02-06T07:25:47.964Z,5.81
2019-02-06T07:28:14.046Z,5.91
2019-02-06T07:30:40.306Z,6.10
2019-02-06T07:33:06.419Z,6.13
2019-02-06T07:35:32.694Z,6.12
2019-02-06T07:37:59.155Z,6.20
2019-02-06T07:40:25.124Z,6.20
2019-02-06T07:42:51.191Z,6.03
2019-02-06T07:45:18.760Z,6.03
2019-02-06T07:47:45.036Z,6.04
2019-02-06T07:50:35.565Z,6.08
2019-02-06T07:53:01.854Z,6.25
2019-02-06T07:55:28.134Z,6.27
2019-02-06T07:57:54.399Z,6.42
2019-02-06T08:00:20.457Z,6.70
2019-02-06T08:02:46.614Z,6.73
2019-02-06T08:05:15.996Z,6.83
2019-02-06T08:07:42.167Z,6.78
2019-02-06T08:10:12.547Z,6.75
2019-02-06T08:12:38.706Z,7.04
2019-02-06T08:15:13.843Z,7.08
2019-02-06T08:17:39.902Z,7.08
2019-02-06T08:20:09.281Z,7.17
2019-02-06T08:22:35.539Z,7.14
2019-02-06T08:25:01.486Z,7.07
2019-02-06T08:27:27.952Z,6.94
2019-02-06T08:29:53.915Z,7.01
2019-02-06T08:32:19.885Z,7.03
2019-02-06T08:34:45.852Z,7.08
2019-02-06T08:37:11.823Z,7.19
2019-02-06T08:39:37.762Z,7.14
2019-02-06T08:42:04.014Z,7.08
2019-02-06T08:44:30.017Z,7.04
2019-02-06T08:46:56.495Z,7.11
2019-02-06T08:49:22.860Z,7.26
2019-02-06T08:51:48.820Z,7.11
2019-02-06T08:54:14.833Z,7.12
2019-02-06T08:56:40.910Z,7.32
2019-02-06T08:59:07.166Z,7.24
2019-02-06T09:01:33.344Z,7.32
2019-02-06T09:03:59.412Z,7.28
2019-02-06T09:06:25.589Z,7.44
2019-02-06T09:08:59.272Z,7.46
2019-02-06T09:11:20.234Z,7.55
2019-02-06T09:13:46.489Z,7.72
2019-02-06T09:16:12.980Z,7.60
2019-02-06T09:18:39.262Z,7.49
2019-02-06T09:21:05.526Z,7.58
2019-02-06T09:23:31.776Z,7.43
2019-02-06T09:25:58.041Z,7.45
2019-02-06T09:28:24.693Z,7.42
2019-02-06T09:30:50.871Z,7.59
2019-02-06T09:33:17.135Z,7.35
2019-02-06T09:35:43.097Z,7.51
2019-02-06T09:38:09.277Z,7.49
2019-02-06T09:40:35.449Z,7.31
2019-02-06T09:43:01.625Z,7.49
2019-02-06T09:45:27.697Z,7.46
2019-02-06T09:47:53.850Z,7.35
2019-02-06T09:50:23.533Z,7.60
2019-02-06T09:52:49.809Z,7.53
2019-02-06T09:55:15.873Z,7.52
2019-02-06T09:57:42.054Z,7.40
2019-02-06T10:00:14.969Z,7.29
2019-02-06T10:02:41.232Z,7.27
2019-02-06T10:05:09.298Z,7.28
2019-02-06T10:07:35.868Z,7.19
2019-02-06T10:10:02.139Z,7.20
2019-02-06T10:12:28.351Z,7.34
2019-02-06T10:14:54.629Z,7.23
2019-02-06T10:17:20.911Z,7.26
2019-02-06T10:19:47.218Z,7.49
2019-02-06T10:22:13.469Z,7.52
2019-02-06T10:24:39.762Z,7.72
2019-02-06T10:27:06.028Z,7.63
2019-02-06T10:29:32.514Z,7.58
2019-02-06T10:31:58.775Z,7.69
2019-02-06T10:34:24.951Z,7.86
2019-02-06T10:36:51.219Z,7.97
2019-02-06T10:39:17.391Z,7.88
2019-02-06T10:41:43.684Z,7.97
2019-02-06T10:44:10.003Z,7.97
2019-02-06T10:46:36.267Z,7.90
2019-02-06T10:49:02.871Z,7.97
2019-02-06T10:51:29.151Z,8.02
2019-02-06T10:53:55.343Z,7.90
2019-02-06T10:56:21.603Z,8.05
2019-02-06T10:58:47.765Z,7.95
2019-02-06T11:01:13.938Z,8.12
2019-02-06T11:03:40.223Z,7.96
2019-02-06T11:06:06.490Z,7.86
2019-02-06T11:08:32.760Z,7.88
2019-02-06T11:10:59.118Z,7.89
2019-02-06T11:13:25.282Z,7.88
2019-02-06T11:15:51.556Z,7.81
2019-02-06T11:18:17.742Z,8.01
2019-02-06T11:20:53.137Z,8.13
2019-02-06T11:23:19.408Z,8.07
2019-02-06T11:25:45.595Z,8.17
2019-02-06T11:28:12.147Z,8.11
2019-02-06T11:30:38.397Z,8.01
2019-02-06T11:33:04.998Z,7.95
2019-02-06T11:35:31.266Z,7.85
2019-02-06T11:37:57.555Z,7.82
2019-02-06T11:40:24.100Z,7.88
2019-02-06T11:42:50.585Z,7.92
2019-02-06T11:45:25.923Z,7.88
2019-02-06T11:47:52.202Z,7.84
2019-02-06T11:50:21.785Z,7.80
2019-02-06T11:52:48.462Z,7.78
2019-02-06T11:55:16.931Z,7.89
2019-02-06T11:57:43.210Z,7.88
2019-02-06T12:00:14.477Z,7.87
2019-02-06T12:02:41.040Z,7.89
2019-02-06T12:05:08.383Z,7.78
2019-02-06T12:07:34.486Z,7.80
2019-02-06T12:10:09.461Z,7.88
2019-02-06T12:12:28.834Z,7.83
2019-02-06T12:14:55.227Z,7.96
2019-02-06T12:17:21.201Z,7.94
2019-02-06T12:19:47.377Z,8.01
2019-02-06T12:22:13.426Z,7.94
2019-02-06T12:24:39.604Z,7.98
2019-02-06T12:27:05.881Z,8.08
2019-02-06T12:29:32.037Z,7.97
2019-02-06T12:31:58.301Z,7.99
2019-02-06T12:34:24.469Z,8.05
2019-02-06T12:36:50.734Z,8.02
2019-02-06T12:39:16.999Z,7.90
2019-02-06T12:41:43.260Z,7.67
2019-02-06T12:44:09.573Z,7.53
2019-02-06T12:46:35.834Z,7.47
2019-02-06T12:49:02.690Z,7.40
2019-02-06T12:51:28.763Z,7.30
2019-02-06T12:53:55.031Z,7.17
2019-02-06T12:56:21.288Z,7.15
2019-02-06T12:58:47.464Z,7.16
2019-02-06T13:01:13.723Z,7.11
2019-02-06T13:03:39.999Z,7.14
2019-02-06T13:06:06.242Z,7.23
2019-02-06T13:08:32.402Z,7.28
2019-02-06T13:10:58.882Z,7.27
2019-02-06T13:13:25.172Z,7.31
2019-02-06T13:15:51.247Z,7.38
2019-02-06T13:18:17.508Z,7.32
2019-02-06T13:20:43.672Z,7.33
2019-02-06T13:23:09.927Z,7.35
2019-02-06T13:25:36.206Z,7.43
2019-02-06T13:28:02.769Z,7.44
2019-02-06T13:30:37.123Z,7.37
2019-02-06T13:33:04.988Z,7.41
2019-02-06T13:35:31.168Z,7.43
2019-02-06T13:37:57.435Z,7.44
2019-02-06T13:40:27.554Z,7.41
2019-02-06T13:42:53.905Z,7.49
2019-02-06T13:45:22.480Z,7.49
2019-02-06T13:47:48.759Z,7.60
2019-02-06T13:50:21.922Z,7.61
2019-02-06T13:52:44.724Z,7.56
2019-02-06T13:55:14.484Z,7.56
2019-02-06T13:57:40.103Z,7.52
2019-02-06T14:00:12.589Z,7.42
2019-02-06T14:02:38.968Z,7.51
2019-02-06T14:05:05.126Z,7.47
2019-02-06T14:07:31.290Z,7.51
2019-02-06T14:09:57.558Z,7.54
2019-02-06T14:12:23.854Z,7.55
2019-02-06T14:14:50.026Z,7.39
2019-02-06T14:17:18.273Z,7.42
2019-02-06T14:19:44.476Z,7.43
2019-02-06T14:22:11.036Z,7.41
2019-02-06T14:24:40.916Z,7.36
2019-02-06T14:27:10.822Z,7.34
2019-02-06T14:30:09.584Z,7.14
2019-02-06T14:32:59.235Z,7.28
2019-02-06T14:35:34.895Z,7.25
2019-02-06T14:38:30.777Z,7.22
2019-02-06T14:41:08.520Z,7.12
2019-02-06T14:44:01.235Z,7.12
2019-02-06T14:47:01.179Z,7.13
2019-02-06T14:49:39.956Z,7.19
2019-02-06T14:52:25.151Z,7.20
2019-02-06T14:55:26.381Z,7.13
2019-02-06T14:58:26.407Z,7.05
2019-02-06T15:01:17.139Z,6.90
2019-02-06T15:03:59.014Z,6.93
2019-02-06T15:06:45.415Z,6.78
2019-02-06T15:09:45.755Z,6.69
2019-02-06T15:12:18.464Z,6.70
2019-02-06T15:14:48.340Z,6.72
2019-02-06T15:17:36.905Z,6.65
2019-02-06T15:20:23.360Z,6.73
2019-02-06T15:23:11.571Z,6.71
2019-02-06T15:26:17.918Z,6.67
2019-02-06T15:28:50.752Z,6.67
2019-02-06T15:31:37.528Z,6.59
2019-02-06T15:34:25.976Z,6.65
2019-02-06T15:37:25.993Z,6.65
2019-02-06T15:40:14.239Z,6.67
2019-02-06T15:43:00.626Z,6.63
2019-02-06T15:45:39.400Z,6.64
2019-02-06T15:48:11.873Z,6.62
2019-02-06T15:51:07.565Z,6.61
2019-02-06T15:53:43.223Z,6.65
2019-02-06T15:56:22.332Z,6.57
2019-02-06T15:58:58.410Z,6.55
2019-02-06T16:01:34.191Z,6.59
2019-02-06T16:04:21.320Z,6.54
2019-02-06T16:07:21.374Z,6.45
2019-02-06T16:10:00.549Z,6.35
2019-02-06T16:12:35.702Z,6.21
2019-02-06T16:15:08.491Z,6.18
2019-02-06T16:17:50.442Z,6.20
2019-02-06T16:20:23.583Z,6.28
2019-02-06T16:23:26.690Z,6.34
2019-02-06T16:26:13.362Z,6.23
2019-02-06T16:29:07.224Z,6.18
2019-02-06T16:31:37.141Z,6.15
2019-02-06T16:34:07.310Z,6.24
2019-02-06T16:36:52.455Z,6.26
2019-02-06T16:39:31.203Z,6.24
2019-02-06T16:42:09.919Z,6.23
2019-02-06T16:44:45.857Z,6.25
2019-02-06T16:47:30.747Z,6.28
2019-02-06T16:50:03.953Z,6.31
2019-02-06T16:52:54.350Z,6.41
2019-02-06T16:55:26.956Z,6.37
2019-02-06T16:58:02.911Z,6.39
2019-02-06T17:00:39.022Z,6.29
2019-02-06T17:03:14.741Z,6.26
2019-02-06T17:06:00.010Z,6.15
2019-02-06T17:08:54.271Z,6.19
2019-02-06T17:12:04.092Z,6.20
2019-02-06T17:14:48.883Z,6.27
2019-02-06T17:17:35.443Z,6.24
2019-02-06T17:20:08.091Z,6.22
2019-02-06T17:22:38.126Z,6.27
2019-02-06T17:25:19.862Z,6.24
2019-02-06T17:28:06.235Z,6.25
2019-02-06T17:30:36.115Z,5.39
2019-02-06T17:33:37.890Z,6.11
2019-02-06T17:36:39.549Z,6.08
2019-02-06T17:39:23.912Z,6.00
2019-02-06T17:42:15.773Z,6.09
2019-02-06T17:45:12.641Z,6.12
2019-02-06T17:48:02.462Z,6.08
2019-02-06T17:50:35.341Z,6.02
2019-02-06T17:53:17.189Z,5.82
2019-02-06T17:55:43.491Z,5.76
2019-02-06T17:58:09.805Z,5.83
2019-02-06T18:01:02.255Z,5.87
2019-02-06T18:03:31.491Z,5.85
2019-02-06T18:05:57.654Z,5.87
2019-02-06T18:08:23.970Z,5.83
2019-02-06T18:10:50.366Z,5.85
2019-02-06T18:13:16.670Z,5.82
2019-02-06T18:15:43.028Z,5.80
2019-02-06T18:18:09.375Z,5.81
2019-02-06T18:20:35.661Z,5.73
2019-02-06T18:23:02.124Z,5.77
2019-02-06T18:25:28.443Z,5.77
2019-02-06T18:27:54.754Z,5.79
2019-02-06T18:30:23.683Z,5.84
2019-02-06T18:32:49.948Z,5.80
2019-02-06T18:35:16.127Z,5.70
2019-02-06T18:37:43.343Z,5.71
2019-02-06T18:40:12.217Z,5.73
2019-02-06T18:42:38.572Z,5.84
2019-02-06T18:45:08.978Z,5.87
2019-02-06T18:47:35.290Z,5.90
2019-02-06T18:50:02.721Z,5.89
2019-02-06T18:52:30.826Z,5.78
2019-02-06T18:54:57.171Z,5.75
2019-02-06T18:57:23.491Z,5.83
2019-02-06T18:59:49.771Z,5.83
2019-02-06T19:02:16.099Z,5.83
2019-02-06T19:04:42.799Z,5.77
2019-02-06T19:07:10.266Z,5.80
2019-02-06T19:09:36.937Z,5.82
2019-02-06T19:12:03.229Z,5.82
2019-02-06T19:14:29.529Z,5.77
2019-02-06T19:16:55.812Z,5.82
2019-02-06T19:19:25.628Z,5.80
2019-02-06T19:21:50.269Z,5.82
2019-02-06T19:24:17.825Z,5.84
2019-02-06T19:26:44.330Z,5.78
2019-02-06T19:29:10.610Z,5.82
2019-02-06T19:31:36.909Z,5.77
2019-02-06T19:34:03.395Z,5.73
2019-02-06T19:36:29.557Z,5.80
2019-02-06T19:38:55.845Z,5.76
2019-02-06T19:41:22.133Z,5.81
2019-02-06T19:43:50.226Z,5.83
2019-02-06T19:46:16.519Z,5.87
2019-02-06T19:48:42.791Z,5.81
2019-02-06T19:51:09.055Z,5.79
2019-02-06T19:53:35.322Z,5.78
2019-02-06T19:56:02.195Z,5.81
2019-02-06T19:58:28.470Z,5.79
2019-02-06T20:00:54.642Z,5.74
2019-02-06T20:03:20.909Z,5.79
2019-02-06T20:05:47.158Z,5.82
2019-02-06T20:08:14.316Z,5.76
2019-02-06T20:10:44.149Z,5.83
2019-02-06T20:13:14.149Z,5.82
2019-02-06T20:15:38.600Z,5.78
2019-02-06T20:18:04.884Z,5.81
2019-02-06T20:20:31.581Z,5.87
2019-02-06T20:22:57.896Z,5.85
2019-02-06T20:25:24.145Z,5.80
2019-02-06T20:27:51.242Z,5.81
2019-02-06T20:30:19.740Z,5.84
2019-02-06T20:32:45.906Z,5.83
2019-02-06T20:35:13.706Z,5.85
2019-02-06T20:37:39.995Z,5.87
2019-02-06T20:40:35.593Z,5.80
2019-02-06T20:43:01.765Z,5.83
2019-02-06T20:45:28.046Z,5.92
2019-02-06T20:47:54.310Z,6.00
2019-02-06T20:50:25.529Z,5.99
2019-02-06T20:52:51.805Z,6.04
2019-02-06T20:55:19.384Z,6.08
2019-02-06T20:57:45.657Z,5.96
2019-02-06T21:00:15.294Z,6.06
2019-02-06T21:02:41.579Z,6.09
2019-02-06T21:05:10.630Z,6.10
2019-02-06T21:07:38.827Z,6.13
2019-02-06T21:10:09.217Z,6.16
2019-02-06T21:12:35.778Z,6.12
2019-02-06T21:15:02.149Z,6.10
2019-02-06T21:17:28.310Z,6.10
2019-02-06T21:19:54.574Z,6.08
2019-02-06T21:22:20.750Z,6.11
2019-02-06T21:24:46.917Z,6.05
2019-02-06T21:27:13.093Z,5.95
2019-02-06T21:29:39.366Z,5.89
2019-02-06T21:32:05.552Z,5.90
2019-02-06T21:34:32.123Z,5.98
2019-02-06T21:36:59.272Z,6.03
2019-02-06T21:39:25.360Z,5.98
2019-02-06T21:41:51.637Z,5.93
2019-02-06T21:44:17.615Z,5.92
2019-02-06T21:46:43.773Z,5.85
2019-02-06T21:49:09.839Z,5.85
2019-02-06T21:51:36.128Z,5.68
2019-02-06T21:54:02.705Z,5.74
2019-02-06T21:56:28.887Z,5.66
2019-02-06T21:58:55.137Z,5.68
2019-02-06T22:01:21.321Z,5.66
2019-02-06T22:03:47.473Z,5.67
2019-02-06T22:06:13.542Z,5.58
2019-02-06T22:08:39.786Z,5.58
2019-02-06T22:11:05.847Z,5.48
2019-02-06T22:13:32.431Z,5.46
2019-02-06T22:15:58.767Z,5.40
2019-02-06T22:18:25.055Z,5.28
2019-02-06T22:20:51.318Z,5.22
2019-02-06T22:23:17.471Z,5.27
2019-02-06T22:25:43.658Z,5.28
2019-02-06T22:28:09.905Z,5.40
2019-02-06T22:30:36.166Z,5.56
2019-02-06T22:33:02.644Z,5.57
2019-02-06T22:35:28.907Z,5.63
2019-02-06T22:37:55.159Z,5.71
2019-02-06T22:40:23.939Z,5.76
2019-02-06T22:42:50.128Z,5.80
2019-02-06T22:45:19.149Z,5.86
2019-02-06T22:47:45.096Z,5.89
2019-02-06T22:50:16.767Z,5.90
2019-02-06T22:52:43.048Z,5.95
2019-02-06T22:55:10.809Z,5.88
2019-02-06T22:57:37.068Z,5.92
2019-02-06T23:00:37.541Z,5.93
2019-02-06T23:03:03.811Z,5.83
2019-02-06T23:05:29.889Z,5.87
2019-02-06T23:07:55.926Z,5.86
2019-02-06T23:10:22.091Z,5.70
2019-02-06T23:12:48.041Z,5.71
2019-02-06T23:15:14.102Z,5.63
2019-02-06T23:17:40.349Z,5.61
2019-02-06T23:20:08.579Z,5.63
2019-02-06T23:22:34.829Z,5.68
2019-02-06T23:25:00.985Z,5.73
2019-02-06T23:27:26.955Z,5.73
2019-02-06T23:29:53.009Z,5.79
2019-02-06T23:32:19.164Z,5.75
2019-02-06T23:34:45.407Z,5.72
2019-02-06T23:37:11.600Z,5.73
2019-02-06T23:39:37.941Z,5.77
2019-02-06T23:42:03.926Z,5.85
2019-02-06T23:44:30.106Z,5.87
2019-02-06T23:46:56.385Z,5.95
2019-02-06T23:49:22.632Z,5.89
2019-02-06T23:51:48.679Z,5.97
2019-02-06T23:54:14.631Z,5.97
2019-02-06T23:56:40.689Z,5.96
2019-02-06T23:59:07.162Z,5.93
